sensor_id;sensor_type;location;lat;lon;timestamp;pressure;altitude;pressure_sealevel;temperature;humidity
41040;BME280;48586;50.122;18.972;2023-01-27T00:01:57;98709.44;;;1.72;58.54
41040;BME280;48586;50.122;18.972;2023-01-27T00:04:02;98706.97;;;1.70;58.65
41040;BME280;48586;50.122;18.972;2023-01-27T00:06:09;98716.50;;;1.71;58.02
41040;BME280;48586;50.122;18.972;2023-01-27T00:08:17;98711.75;;;1.67;58.40
41040;BME280;48586;50.122;18.972;2023-01-27T00:10:25;98708.97;;;1.60;58.32
41040;BME280;48586;50.122;18.972;2023-01-27T00:12:30;98709.66;;;1.54;58.61
41040;BME280;48586;50.122;18.972;2023-01-27T00:14:50;98714.59;;;1.49;58.89
41040;BME280;48586;50.122;18.972;2023-01-27T00:16:55;98718.53;;;1.45;59.14
41040;BME280;48586;50.122;18.972;2023-01-27T00:19:00;98712.00;;;1.41;59.13
41040;BME280;48586;50.122;18.972;2023-01-27T00:21:06;98713.31;;;1.37;59.60
41040;BME280;48586;50.122;18.972;2023-01-27T00:23:25;98713.00;;;1.32;60.00
41040;BME280;48586;50.122;18.972;2023-01-27T00:25:42;98714.50;;;1.26;60.16
41040;BME280;48586;50.122;18.972;2023-01-27T00:27:50;98716.63;;;1.22;60.19
41040;BME280;48586;50.122;18.972;2023-01-27T00:29:58;98707.28;;;1.20;60.34
41040;BME280;48586;50.122;18.972;2023-01-27T00:32:05;98718.75;;;1.19;60.39
41040;BME280;48586;50.122;18.972;2023-01-27T00:34:23;98716.78;;;1.13;60.70
41040;BME280;48586;50.122;18.972;2023-01-27T00:36:28;98718.94;;;1.09;60.78
41040;BME280;48586;50.122;18.972;2023-01-27T00:38:35;98728.78;;;1.07;60.81
41040;BME280;48586;50.122;18.972;2023-01-27T00:40:43;98720.59;;;1.02;61.01
41040;BME280;48586;50.122;18.972;2023-01-27T00:43:08;98730.44;;;1.00;60.92
41040;BME280;48586;50.122;18.972;2023-01-27T00:45:15;98727.47;;;0.95;61.20
41040;BME280;48586;50.122;18.972;2023-01-27T00:47:33;98725.19;;;0.92;60.99
41040;BME280;48586;50.122;18.972;2023-01-27T00:49:38;98718.47;;;0.89;61.20
41040;BME280;48586;50.122;18.972;2023-01-27T00:51:42;98725.03;;;0.85;61.47
41040;BME280;48586;50.122;18.972;2023-01-27T00:53:48;98724.19;;;0.85;61.51
41040;BME280;48586;50.122;18.972;2023-01-27T00:55:52;98722.56;;;0.84;61.56
41040;BME280;48586;50.122;18.972;2023-01-27T00:57:58;98712.09;;;0.84;61.39
41040;BME280;48586;50.122;18.972;2023-01-27T01:00:09;98712.09;;;0.84;61.60
41040;BME280;48586;50.122;18.972;2023-01-27T01:02:19;98705.03;;;0.84;61.76
41040;BME280;48586;50.122;18.972;2023-01-27T01:04:24;98714.53;;;0.85;61.89
41040;BME280;48586;50.122;18.972;2023-01-27T01:06:31;98709.97;;;0.87;62.14
41040;BME280;48586;50.122;18.972;2023-01-27T01:08:38;98711.09;;;0.93;61.92
41040;BME280;48586;50.122;18.972;2023-01-27T01:10:43;98713.03;;;0.99;61.87
41040;BME280;48586;50.122;18.972;2023-01-27T01:12:50;98711.72;;;1.03;61.41
41040;BME280;48586;50.122;18.972;2023-01-27T01:14:56;98709.09;;;1.03;61.15
41040;BME280;48586;50.122;18.972;2023-01-27T01:17:01;98716.97;;;1.03;60.99
41040;BME280;48586;50.122;18.972;2023-01-27T01:19:09;98712.09;;;1.00;61.06
41040;BME280;48586;50.122;18.972;2023-01-27T01:21:14;98700.28;;;0.96;61.26
41040;BME280;48586;50.122;18.972;2023-01-27T01:23:19;98702.56;;;0.91;61.48
41040;BME280;48586;50.122;18.972;2023-01-27T01:25:25;98704.53;;;0.89;61.69
41040;BME280;48586;50.122;18.972;2023-01-27T01:27:31;98702.91;;;0.88;61.60
41040;BME280;48586;50.122;18.972;2023-01-27T01:29:37;98708.97;;;0.88;61.63
41040;BME280;48586;50.122;18.972;2023-01-27T01:31:42;98707.16;;;0.89;61.36
41040;BME280;48586;50.122;18.972;2023-01-27T01:33:48;98707.16;;;0.89;61.75
41040;BME280;48586;50.122;18.972;2023-01-27T01:35:55;98705.03;;;0.92;61.73
41040;BME280;48586;50.122;18.972;2023-01-27T01:38:01;98707.16;;;0.97;61.59
41040;BME280;48586;50.122;18.972;2023-01-27T01:40:10;98701.91;;;0.97;61.48
41040;BME280;48586;50.122;18.972;2023-01-27T01:42:16;98712.09;;;1.00;61.84
41040;BME280;48586;50.122;18.972;2023-01-27T01:44:22;98704.84;;;1.02;61.46
41040;BME280;48586;50.122;18.972;2023-01-27T01:46:29;98701.91;;;1.05;61.60
41040;BME280;48586;50.122;18.972;2023-01-27T01:48:36;98699.91;;;1.07;61.50
41040;BME280;48586;50.122;18.972;2023-01-27T01:50:50;98698.78;;;1.10;61.31
41040;BME280;48586;50.122;18.972;2023-01-27T01:53:04;98705.16;;;1.15;61.26
41040;BME280;48586;50.122;18.972;2023-01-27T01:55:13;98707.28;;;1.20;61.05
41040;BME280;48586;50.122;18.972;2023-01-27T01:57:24;98704.47;;;1.21;60.69
41040;BME280;48586;50.122;18.972;2023-01-27T01:59:36;98707.59;;;1.25;60.52
41040;BME280;48586;50.122;18.972;2023-01-27T02:01:45;98707.44;;;1.27;59.90
41040;BME280;48586;50.122;18.972;2023-01-27T02:03:57;98706.13;;;1.31;59.89
41040;BME280;48586;50.122;18.972;2023-01-27T02:06:09;98699.69;;;1.33;59.75
41040;BME280;48586;50.122;18.972;2023-01-27T02:08:19;98701.19;;;1.36;59.71
41040;BME280;48586;50.122;18.972;2023-01-27T02:10:29;98696.56;;;1.38;59.55
41040;BME280;48586;50.122;18.972;2023-01-27T02:12:35;98700.69;;;1.40;59.60
41040;BME280;48586;50.122;18.972;2023-01-27T02:14:41;98696.25;;;1.41;59.57
41040;BME280;48586;50.122;18.972;2023-01-27T02:16:47;98699.34;;;1.44;59.40
41040;BME280;48586;50.122;18.972;2023-01-27T02:18:52;98687.69;;;1.47;59.31
41040;BME280;48586;50.122;18.972;2023-01-27T02:20:57;98697.66;;;1.52;59.38
41040;BME280;48586;50.122;18.972;2023-01-27T02:23:15;98700.97;;;1.54;59.29
41040;BME280;48586;50.122;18.972;2023-01-27T02:25:42;98694.56;;;1.56;59.23
41040;BME280;48586;50.122;18.972;2023-01-27T02:27:50;98696.19;;;1.57;59.09
41040;BME280;48586;50.122;18.972;2023-01-27T02:29:55;98690.94;;;1.57;59.02
41040;BME280;48586;50.122;18.972;2023-01-27T02:32:00;98695.53;;;1.55;58.90
41040;BME280;48586;50.122;18.972;2023-01-27T02:34:08;98702.44;;;1.56;58.96
41040;BME280;48586;50.122;18.972;2023-01-27T02:36:17;98694.56;;;1.56;58.83
41040;BME280;48586;50.122;18.972;2023-01-27T02:38:22;98704.22;;;1.56;58.99
41040;BME280;48586;50.122;18.972;2023-01-27T02:40:29;98694.56;;;1.56;58.87
41040;BME280;48586;50.122;18.972;2023-01-27T02:42:39;98695.53;;;1.55;58.74
41040;BME280;48586;50.122;18.972;2023-01-27T02:44:44;98697.34;;;1.55;58.69
41040;BME280;48586;50.122;18.972;2023-01-27T02:46:50;98695.91;;;1.52;58.86
41040;BME280;48586;50.122;18.972;2023-01-27T02:48:55;98691.59;;;1.51;58.78
41040;BME280;48586;50.122;18.972;2023-01-27T02:51:00;98698.53;;;1.52;58.74
41040;BME280;48586;50.122;18.972;2023-01-27T02:53:08;98695.22;;;1.50;58.62
41040;BME280;48586;50.122;18.972;2023-01-27T02:55:14;98693.41;;;1.51;58.79
41040;BME280;48586;50.122;18.972;2023-01-27T02:57:18;98697.84;;;1.50;58.63
41040;BME280;48586;50.122;18.972;2023-01-27T02:59:55;98698.66;;;1.51;59.27
41040;BME280;48586;50.122;18.972;2023-01-27T03:02:00;98698.53;;;1.52;58.96
41040;BME280;48586;50.122;18.972;2023-01-27T03:04:05;98692.28;;;1.53;58.95
41040;BME280;48586;50.122;18.972;2023-01-27T03:06:15;98695.72;;;1.54;58.94
41040;BME280;48586;50.122;18.972;2023-01-27T03:08:21;98691.47;;;1.53;58.94
41040;BME280;48586;50.122;18.972;2023-01-27T03:10:26;98695.91;;;1.52;58.65
41040;BME280;48586;50.122;18.972;2023-01-27T03:12:34;98695.22;;;1.50;58.87
41040;BME280;48586;50.122;18.972;2023-01-27T03:14:39;98700.66;;;1.48;58.62
41040;BME280;48586;50.122;18.972;2023-01-27T03:16:58;98701.66;;;1.47;59.21
41040;BME280;48586;50.122;18.972;2023-01-27T03:19:15;98704.59;;;1.44;59.08
41040;BME280;48586;50.122;18.972;2023-01-27T03:21:20;98699.50;;;1.43;59.27
41040;BME280;48586;50.122;18.972;2023-01-27T03:23:25;98702.50;;;1.40;59.08
41040;BME280;48586;50.122;18.972;2023-01-27T03:25:31;98702.50;;;1.40;58.97
41040;BME280;48586;50.122;18.972;2023-01-27T03:27:35;98703.47;;;1.39;59.30
41040;BME280;48586;50.122;18.972;2023-01-27T03:30:13;98704.81;;;1.35;59.19
41040;BME280;48586;50.122;18.972;2023-01-27T03:32:32;98706.44;;;1.36;59.34
41040;BME280;48586;50.122;18.972;2023-01-27T03:35:06;98704.94;;;1.33;59.34
41040;BME280;48586;50.122;18.972;2023-01-27T03:37:11;98707.56;;;1.33;59.23
41040;BME280;48586;50.122;18.972;2023-01-27T03:39:30;98706.75;;;1.33;59.10
41040;BME280;48586;50.122;18.972;2023-01-27T03:41:47;98705.75;;;1.34;59.51
41040;BME280;48586;50.122;18.972;2023-01-27T03:44:03;98704.81;;;1.35;59.40
41040;BME280;48586;50.122;18.972;2023-01-27T03:46:23;98703.63;;;1.37;59.56
41040;BME280;48586;50.122;18.972;2023-01-27T03:48:30;98700.84;;;1.39;59.39
41040;BME280;48586;50.122;18.972;2023-01-27T03:50:33;98704.44;;;1.38;59.07
41040;BME280;48586;50.122;18.972;2023-01-27T03:52:46;98695.94;;;1.36;59.34
41040;BME280;48586;50.122;18.972;2023-01-27T03:55:07;98702.81;;;1.37;59.26
41040;BME280;48586;50.122;18.972;2023-01-27T03:57:11;98697.56;;;1.37;59.63
41040;BME280;48586;50.122;18.972;2023-01-27T03:59:16;98697.56;;;1.37;59.39
41040;BME280;48586;50.122;18.972;2023-01-27T04:01:22;98699.19;;;1.38;59.34
41040;BME280;48586;50.122;18.972;2023-01-27T04:03:31;98698.56;;;1.36;59.13
41040;BME280;48586;50.122;18.972;2023-01-27T04:05:50;98702.19;;;1.35;59.35
41040;BME280;48586;50.122;18.972;2023-01-27T04:08:07;98703.16;;;1.34;59.40
41040;BME280;48586;50.122;18.972;2023-01-27T04:10:11;98692.66;;;1.34;59.14
41040;BME280;48586;50.122;18.972;2023-01-27T04:12:17;98693.63;;;1.33;59.38
41040;BME280;48586;50.122;18.972;2023-01-27T04:14:19;98693.00;;;1.31;59.49
41040;BME280;48586;50.122;18.972;2023-01-27T04:16:25;98694.63;;;1.32;59.66
41040;BME280;48586;50.122;18.972;2023-01-27T04:18:34;98687.75;;;1.31;59.67
41040;BME280;48586;50.122;18.972;2023-01-27T04:20:39;98693.00;;;1.31;59.66
41040;BME280;48586;50.122;18.972;2023-01-27T04:22:44;98692.34;;;1.29;59.56
41040;BME280;48586;50.122;18.972;2023-01-27T04:24:49;98691.53;;;1.28;59.66
41040;BME280;48586;50.122;18.972;2023-01-27T04:26:57;98690.03;;;1.26;59.41
41040;BME280;48586;50.122;18.972;2023-01-27T04:29:04;98691.84;;;1.25;59.55
41040;BME280;48586;50.122;18.972;2023-01-27T04:31:08;98691.53;;;1.20;59.50
41040;BME280;48586;50.122;18.972;2023-01-27T04:33:12;98693.53;;;1.18;59.15
41040;BME280;48586;50.122;18.972;2023-01-27T04:35:20;98686.97;;;1.14;59.57
41040;BME280;48586;50.122;18.972;2023-01-27T04:37:26;98692.53;;;1.11;59.58
41040;BME280;48586;50.122;18.972;2023-01-27T04:39:31;98692.03;;;1.07;59.79
41040;BME280;48586;50.122;18.972;2023-01-27T04:41:37;98694.03;;;1.05;60.01
41040;BME280;48586;50.122;18.972;2023-01-27T04:43:43;98694.84;;;1.06;60.02
41040;BME280;48586;50.122;18.972;2023-01-27T04:45:47;98694.19;;;1.04;59.86
41040;BME280;48586;50.122;18.972;2023-01-27T04:47:53;98688.28;;;1.02;59.92
41040;BME280;48586;50.122;18.972;2023-01-27T04:49:58;98692.22;;;0.97;60.07
41040;BME280;48586;50.122;18.972;2023-01-27T04:52:06;98693.22;;;0.96;60.15
41040;BME280;48586;50.122;18.972;2023-01-27T04:54:10;98689.13;;;0.94;59.97
41040;BME280;48586;50.122;18.972;2023-01-27T04:56:21;98690.75;;;0.95;60.51
41040;BME280;48586;50.122;18.972;2023-01-27T04:58:31;98689.13;;;0.94;60.59
41040;BME280;48586;50.122;18.972;2023-01-27T05:00:35;98696.50;;;0.98;60.59
41040;BME280;48586;50.122;18.972;2023-01-27T05:02:40;98696.34;;;1.00;60.88
41040;BME280;48586;50.122;18.972;2023-01-27T05:04:44;98699.59;;;1.02;60.65
41040;BME280;48586;50.122;18.972;2023-01-27T05:06:49;98707.28;;;1.04;60.51
41040;BME280;48586;50.122;18.972;2023-01-27T05:08:56;98703.53;;;1.06;60.22
41040;BME280;48586;50.122;18.972;2023-01-27T05:11:01;98702.41;;;1.09;60.41
41040;BME280;48586;50.122;18.972;2023-01-27T05:13:05;98710.09;;;1.10;60.01
41040;BME280;48586;50.122;18.972;2023-01-27T05:15:10;98706.47;;;1.11;60.07
41040;BME280;48586;50.122;18.972;2023-01-27T05:17:14;98709.28;;;1.10;60.12
41040;BME280;48586;50.122;18.972;2023-01-27T05:19:19;98715.16;;;1.12;60.10
41040;BME280;48586;50.122;18.972;2023-01-27T05:21:25;98711.72;;;1.11;60.25
41040;BME280;48586;50.122;18.972;2023-01-27T05:23:30;98720.25;;;1.13;59.99
41040;BME280;48586;50.122;18.972;2023-01-27T05:25:40;98715.34;;;1.10;59.84
41040;BME280;48586;50.122;18.972;2023-01-27T05:27:46;98712.72;;;1.10;59.88
41040;BME280;48586;50.122;18.972;2023-01-27T05:29:50;98719.59;;;1.11;59.75
41040;BME280;48586;50.122;18.972;2023-01-27T05:31:54;98720.41;;;1.12;59.79
41040;BME280;48586;50.122;18.972;2023-01-27T05:34:00;98717.97;;;1.10;59.74
41040;BME280;48586;50.122;18.972;2023-01-27T05:36:07;98708.59;;;1.08;60.03
41040;BME280;48586;50.122;18.972;2023-01-27T05:38:13;98712.41;;;1.05;59.44
41040;BME280;48586;50.122;18.972;2023-01-27T05:40:18;98714.34;;;1.03;59.38
41040;BME280;48586;50.122;18.972;2023-01-27T05:42:24;98717.97;;;1.02;59.47
41040;BME280;48586;50.122;18.972;2023-01-27T05:44:28;98716.16;;;1.03;59.75
41040;BME280;48586;50.122;18.972;2023-01-27T05:46:38;98714.03;;;1.06;59.53
41040;BME280;48586;50.122;18.972;2023-01-27T05:48:45;98707.78;;;1.07;59.55
41040;BME280;48586;50.122;18.972;2023-01-27T05:50:54;98712.03;;;1.08;59.24
41040;BME280;48586;50.122;18.972;2023-01-27T05:53:00;98718.28;;;1.07;58.98
41040;BME280;48586;50.122;18.972;2023-01-27T05:55:05;98711.59;;;1.05;58.96
41040;BME280;48586;50.122;18.972;2023-01-27T05:57:09;98714.53;;;1.02;58.59
41040;BME280;48586;50.122;18.972;2023-01-27T05:59:17;98724.19;;;1.01;58.49
41040;BME280;48586;50.122;18.972;2023-01-27T06:01:24;98719.44;;;0.96;58.25
41040;BME280;48586;50.122;18.972;2023-01-27T06:03:32;98719.78;;;0.93;58.42
41040;BME280;48586;50.122;18.972;2023-01-27T06:05:37;98719.94;;;0.92;58.46
41040;BME280;48586;50.122;18.972;2023-01-27T06:07:43;98733.06;;;0.92;58.39
41040;BME280;48586;50.122;18.972;2023-01-27T06:09:48;98730.75;;;0.89;58.20
41040;BME280;48586;50.122;18.972;2023-01-27T06:11:55;98727.81;;;0.84;58.54
41040;BME280;48586;50.122;18.972;2023-01-27T06:14:00;98731.75;;;0.80;58.70
41040;BME280;48586;50.122;18.972;2023-01-27T06:16:11;98733.69;;;0.78;58.21
41040;BME280;48586;50.122;18.972;2023-01-27T06:18:19;98731.25;;;0.76;58.57
41040;BME280;48586;50.122;18.972;2023-01-27T06:20:24;98735.69;;;0.76;58.41
41040;BME280;48586;50.122;18.972;2023-01-27T06:22:29;98735.69;;;0.76;58.60
41040;BME280;48586;50.122;18.972;2023-01-27T06:24:35;98740.91;;;0.76;58.77
41040;BME280;48586;50.122;18.972;2023-01-27T06:26:40;98749.78;;;0.75;58.51
41040;BME280;48586;50.122;18.972;2023-01-27T06:28:46;98748.13;;;0.73;58.32
41040;BME280;48586;50.122;18.972;2023-01-27T06:30:52;98747.97;;;0.75;58.13
41040;BME280;48586;50.122;18.972;2023-01-27T06:32:59;98751.25;;;0.77;57.67
41040;BME280;48586;50.122;18.972;2023-01-27T06:35:05;98747.81;;;0.77;57.31
41040;BME280;48586;50.122;18.972;2023-01-27T06:37:12;98755.03;;;0.75;56.75
41040;BME280;48586;50.122;18.972;2023-01-27T06:39:17;98758.78;;;0.72;57.02
41040;BME280;48586;50.122;18.972;2023-01-27T06:41:22;98755.66;;;0.68;56.71
41040;BME280;48586;50.122;18.972;2023-01-27T06:43:27;98760.91;;;0.68;57.25
41040;BME280;48586;50.122;18.972;2023-01-27T06:45:33;98751.88;;;0.63;56.54
41040;BME280;48586;50.122;18.972;2023-01-27T06:47:38;98757.94;;;0.63;56.74
41040;BME280;48586;50.122;18.972;2023-01-27T06:49:47;98763.50;;;0.60;56.46
41040;BME280;48586;50.122;18.972;2023-01-27T06:51:53;98764.50;;;0.59;56.46
41040;BME280;48586;50.122;18.972;2023-01-27T06:53:57;98765.63;;;0.57;56.11
41040;BME280;48586;50.122;18.972;2023-01-27T06:56:04;98760.56;;;0.55;56.13
41040;BME280;48586;50.122;18.972;2023-01-27T06:58:10;98768.59;;;0.54;56.46
41040;BME280;48586;50.122;18.972;2023-01-27T07:00:18;98767.78;;;0.53;56.27
41040;BME280;48586;50.122;18.972;2023-01-27T07:02:23;98766.78;;;0.54;56.33
41040;BME280;48586;50.122;18.972;2023-01-27T07:04:29;98769.41;;;0.54;56.12
41040;BME280;48586;50.122;18.972;2023-01-27T07:06:36;98769.41;;;0.54;55.93
41040;BME280;48586;50.122;18.972;2023-01-27T07:08:42;98768.72;;;0.52;55.72
41040;BME280;48586;50.122;18.972;2023-01-27T07:10:48;98770.22;;;0.55;55.78
41040;BME280;48586;50.122;18.972;2023-01-27T07:13:03;98767.59;;;0.55;55.49
41040;BME280;48586;50.122;18.972;2023-01-27T07:15:10;98763.84;;;0.57;55.54
41040;BME280;48586;50.122;18.972;2023-01-27T07:17:15;98769.09;;;0.57;55.32
41040;BME280;48586;50.122;18.972;2023-01-27T07:19:20;98775.28;;;0.56;54.92
41040;BME280;48586;50.122;18.972;2023-01-27T07:21:26;98765.63;;;0.57;55.15
41040;BME280;48586;50.122;18.972;2023-01-27T07:23:34;98771.72;;;0.57;55.08
41040;BME280;48586;50.122;18.972;2023-01-27T07:25:39;98771.84;;;0.56;54.84
41040;BME280;48586;50.122;18.972;2023-01-27T07:27:45;98770.72;;;0.58;54.66
41040;BME280;48586;50.122;18.972;2023-01-27T07:29:50;98770.41;;;0.61;54.70
41040;BME280;48586;50.122;18.972;2023-01-27T07:31:56;98774.81;;;0.61;54.57
41040;BME280;48586;50.122;18.972;2023-01-27T07:34:02;98775.47;;;0.63;54.74
41040;BME280;48586;50.122;18.972;2023-01-27T07:36:07;98778.94;;;0.63;54.59
41040;BME280;48586;50.122;18.972;2023-01-27T07:38:14;98772.69;;;0.64;54.41
41040;BME280;48586;50.122;18.972;2023-01-27T07:40:22;98773.50;;;0.65;54.08
41040;BME280;48586;50.122;18.972;2023-01-27T07:42:26;98773.50;;;0.65;54.32
41040;BME280;48586;50.122;18.972;2023-01-27T07:44:31;98774.19;;;0.67;54.17
41040;BME280;48586;50.122;18.972;2023-01-27T07:46:38;98773.38;;;0.66;53.86
41040;BME280;48586;50.122;18.972;2023-01-27T07:48:46;98771.38;;;0.68;54.20
41040;BME280;48586;50.122;18.972;2023-01-27T07:50:52;98769.25;;;0.72;53.51
41040;BME280;48586;50.122;18.972;2023-01-27T07:52:58;98773.53;;;0.73;53.82
41040;BME280;48586;50.122;18.972;2023-01-27T07:55:05;98774.03;;;0.77;53.74
41040;BME280;48586;50.122;18.972;2023-01-27T07:57:14;98776.31;;;0.80;53.86
41040;BME280;48586;50.122;18.972;2023-01-27T07:59:19;98779.59;;;0.82;53.35
41040;BME280;48586;50.122;18.972;2023-01-27T08:01:25;98781.09;;;0.84;53.67
41040;BME280;48586;50.122;18.972;2023-01-27T08:03:30;98776.66;;;0.85;53.53
41040;BME280;48586;50.122;18.972;2023-01-27T08:05:35;98776.34;;;0.88;53.31
41040;BME280;48586;50.122;18.972;2023-01-27T08:07:46;98776.84;;;0.91;52.90
41040;BME280;48586;50.122;18.972;2023-01-27T08:09:50;98784.22;;;0.96;52.60
41040;BME280;48586;50.122;18.972;2023-01-27T08:11:58;98780.59;;;0.97;52.27
41040;BME280;48586;50.122;18.972;2023-01-27T08:14:05;98779.59;;;0.98;51.93
41040;BME280;48586;50.122;18.972;2023-01-27T08:16:12;98787.47;;;0.98;52.17
41040;BME280;48586;50.122;18.972;2023-01-27T08:18:19;98785.03;;;0.96;52.13
41040;BME280;48586;50.122;18.972;2023-01-27T08:20:26;98789.78;;;0.93;52.28
41040;BME280;48586;50.122;18.972;2023-01-27T08:22:33;98786.84;;;0.96;51.88
41040;BME280;48586;50.122;18.972;2023-01-27T08:24:40;98799.47;;;1.01;52.25
41040;BME280;48586;50.122;18.972;2023-01-27T08:26:45;98796.66;;;1.02;52.04
41040;BME280;48586;50.122;18.972;2023-01-27T08:28:50;98789.28;;;1.06;51.87
41040;BME280;48586;50.122;18.972;2023-01-27T08:31:07;98791.91;;;1.06;51.92
41040;BME280;48586;50.122;18.972;2023-01-27T08:33:13;98797.66;;;1.09;51.58
41040;BME280;48586;50.122;18.972;2023-01-27T08:35:18;98793.88;;;1.12;52.01
41040;BME280;48586;50.122;18.972;2023-01-27T08:37:25;98797.00;;;1.15;51.13
41040;BME280;48586;50.122;18.972;2023-01-27T08:39:30;98799.78;;;1.14;51.31
41040;BME280;48586;50.122;18.972;2023-01-27T08:41:37;98802.06;;;1.17;51.41
41040;BME280;48586;50.122;18.972;2023-01-27T08:43:43;98798.31;;;1.19;51.26
41040;BME280;48586;50.122;18.972;2023-01-27T08:45:50;98798.94;;;1.21;51.29
41040;BME280;48586;50.122;18.972;2023-01-27T08:48:00;98808.63;;;1.21;50.85
41040;BME280;48586;50.122;18.972;2023-01-27T08:50:10;98802.56;;;1.20;51.02
41040;BME280;48586;50.122;18.972;2023-01-27T08:52:15;98803.38;;;1.21;51.39
41040;BME280;48586;50.122;18.972;2023-01-27T08:54:20;98803.38;;;1.21;50.94
41040;BME280;48586;50.122;18.972;2023-01-27T08:56:26;98809.78;;;1.18;51.41
41040;BME280;48586;50.122;18.972;2023-01-27T08:58:31;98805.34;;;1.19;51.26
41040;BME280;48586;50.122;18.972;2023-01-27T09:00:37;98806.19;;;1.19;50.84
41040;BME280;48586;50.122;18.972;2023-01-27T09:02:45;98814.38;;;1.25;51.16
41040;BME280;48586;50.122;18.972;2023-01-27T09:04:54;98808.13;;;1.26;51.14
41040;BME280;48586;50.122;18.972;2023-01-27T09:07:00;98822.72;;;1.28;51.08
41040;BME280;48586;50.122;18.972;2023-01-27T09:09:06;98831.09;;;1.32;50.82
41040;BME280;48586;50.122;18.972;2023-01-27T09:11:16;98822.56;;;1.38;51.03
41040;BME280;48586;50.122;18.972;2023-01-27T09:13:22;98823.72;;;1.43;50.99
41040;BME280;48586;50.122;18.972;2023-01-27T09:15:28;98828.47;;;1.48;51.30
41040;BME280;48586;50.122;18.972;2023-01-27T09:17:34;98825.50;;;1.51;51.05
41040;BME280;48586;50.122;18.972;2023-01-27T09:19:39;98826.16;;;1.53;50.84
41040;BME280;48586;50.122;18.972;2023-01-27T09:21:47;98821.22;;;1.58;50.72
41040;BME280;48586;50.122;18.972;2023-01-27T09:23:53;98828.28;;;1.66;50.72
41040;BME280;48586;50.122;18.972;2023-01-27T09:25:57;98827.78;;;1.70;50.21
41040;BME280;48586;50.122;18.972;2023-01-27T09:28:04;98830.91;;;1.74;49.99
41040;BME280;48586;50.122;18.972;2023-01-27T09:30:17;98837.47;;;1.78;49.91
41040;BME280;48586;50.122;18.972;2023-01-27T09:32:22;98837.09;;;1.81;49.68
41040;BME280;48586;50.122;18.972;2023-01-27T09:34:29;98830.88;;;1.82;49.71
41040;BME280;48586;50.122;18.972;2023-01-27T09:36:40;98825.44;;;1.84;49.52
41040;BME280;48586;50.122;18.972;2023-01-27T09:38:59;98831.19;;;1.87;49.47
41040;BME280;48586;50.122;18.972;2023-01-27T09:41:28;98832.50;;;1.91;49.60
41040;BME280;48586;50.122;18.972;2023-01-27T09:44:10;98835.94;;;1.92;49.12
41040;BME280;48586;50.122;18.972;2023-01-27T09:46:53;98830.03;;;1.90;49.55
41040;BME280;48586;50.122;18.972;2023-01-27T09:49:28;98834.47;;;1.89;49.55
41040;BME280;48586;50.122;18.972;2023-01-27T09:52:03;98831.34;;;1.86;49.06
41040;BME280;48586;50.122;18.972;2023-01-27T09:54:38;98818.72;;;1.81;49.30
41040;BME280;48586;50.122;18.972;2023-01-27T09:57:08;98830.53;;;1.77;49.59
41040;BME280;48586;50.122;18.972;2023-01-27T09:59:44;98823.84;;;1.75;49.81
41040;BME280;48586;50.122;18.972;2023-01-27T10:02:13;98821.88;;;1.68;49.08
41040;BME280;48586;50.122;18.972;2023-01-27T10:04:48;98824.34;;;1.62;49.50
41040;BME280;48586;50.122;18.972;2023-01-27T10:07:22;98830.59;;;1.61;49.13
41040;BME280;48586;50.122;18.972;2023-01-27T10:12:39;98829.59;;;1.54;49.78
41040;BME280;48586;50.122;18.972;2023-01-27T10:15:25;98820.91;;;1.53;49.71
41040;BME280;48586;50.122;18.972;2023-01-27T10:17:50;98823.06;;;1.50;49.54
41040;BME280;48586;50.122;18.972;2023-01-27T10:20:24;98823.88;;;1.50;50.01
41040;BME280;48586;50.122;18.972;2023-01-27T10:22:44;98826.16;;;1.53;50.33
41040;BME280;48586;50.122;18.972;2023-01-27T10:25:09;98816.97;;;1.57;50.04
41040;BME280;48586;50.122;18.972;2023-01-27T10:27:35;98821.56;;;1.55;49.64
41040;BME280;48586;50.122;18.972;2023-01-27T10:29:44;98815.81;;;1.52;50.13
41040;BME280;48586;50.122;18.972;2023-01-27T10:32:25;98815.00;;;1.51;50.22
41040;BME280;48586;50.122;18.972;2023-01-27T10:34:35;98816.00;;;1.50;50.17
41040;BME280;48586;50.122;18.972;2023-01-27T10:36:48;98824.84;;;1.49;50.10
41040;BME280;48586;50.122;18.972;2023-01-27T10:39:11;98819.13;;;1.45;50.11
41040;BME280;48586;50.122;18.972;2023-01-27T10:41:39;98819.13;;;1.45;50.35
41040;BME280;48586;50.122;18.972;2023-01-27T10:44:03;98821.91;;;1.44;50.32
41040;BME280;48586;50.122;18.972;2023-01-27T10:46:31;98818.63;;;1.42;50.34
41040;BME280;48586;50.122;18.972;2023-01-27T10:48:51;98812.72;;;1.40;50.49
41040;BME280;48586;50.122;18.972;2023-01-27T10:51:08;98821.25;;;1.42;50.57
41040;BME280;48586;50.122;18.972;2023-01-27T10:53:22;98822.06;;;1.42;50.51
41040;BME280;48586;50.122;18.972;2023-01-27T10:55:39;98827.50;;;1.41;50.28
41040;BME280;48586;50.122;18.972;2023-01-27T10:57:56;98824.22;;;1.39;50.39
41040;BME280;48586;50.122;18.972;2023-01-27T11:00:16;98819.63;;;1.41;50.61
41040;BME280;48586;50.122;18.972;2023-01-27T11:02:38;98821.25;;;1.42;50.06
41040;BME280;48586;50.122;18.972;2023-01-27T11:04:55;98823.72;;;1.43;50.47
41040;BME280;48586;50.122;18.972;2023-01-27T11:07:06;98824.53;;;1.44;50.23
41040;BME280;48586;50.122;18.972;2023-01-27T11:09:24;98826.19;;;1.45;50.19
41040;BME280;48586;50.122;18.972;2023-01-27T11:11:33;98821.75;;;1.45;49.81
41040;BME280;48586;50.122;18.972;2023-01-27T11:13:48;98819.44;;;1.51;50.16
41040;BME280;48586;50.122;18.972;2023-01-27T11:16:08;98815.66;;;1.53;50.05
41040;BME280;48586;50.122;18.972;2023-01-27T11:18:21;98810.72;;;1.58;50.23
41040;BME280;48586;50.122;18.972;2023-01-27T11:20:31;98809.09;;;1.65;50.24
41040;BME280;48586;50.122;18.972;2023-01-27T11:22:48;98808.72;;;1.68;49.74
41040;BME280;48586;50.122;18.972;2023-01-27T11:25:05;98807.09;;;1.76;50.20
41040;BME280;48586;50.122;18.972;2023-01-27T11:27:30;98816.09;;;1.81;49.87
41040;BME280;48586;50.122;18.972;2023-01-27T11:30:03;98812.97;;;1.86;49.96
41040;BME280;48586;50.122;18.972;2023-01-27T11:32:29;98820.00;;;1.93;50.19